Time;durP1;ratioP1;P1;durP2;ratioP2;P2;SDS_P1;SDS_P2;PMS_P1;PMS_P2;Temp;Humidity;BMP_temperature;BMP_pressure;BME280_temperature;BME280_humidity;BME280_pressure;Samples;Min_cycle;Max_cycle;Signal;HPM_P1;HPM_P2
2022/03/02 00:02:09;;;;;;;38.13;28.42;;;;;;;;;;5048638;28;20056;-77
2022/03/02 00:04:35;;;;;;;37.47;28.15;;;;;;;;;;5065375;28;20101;-76
2022/03/02 00:07:02;;;;;;;39.25;27.70;;;;;;;;;;5052140;28;20368;-77
2022/03/02 00:09:29;;;;;;;39.90;29.08;;;;;;;;;;5040174;28;20040;-76
2022/03/02 00:11:55;;;;;;;41.03;29.42;;;;;;;;;;5066709;28;20462;-75
2022/03/02 00:14:21;;;;;;;39.53;29.50;;;;;;;;;;5046796;28;20044;-76
2022/03/02 00:16:47;;;;;;;41.17;29.65;;;;;;;;;;5071697;28;20040;-75
2022/03/02 00:19:13;;;;;;;39.03;27.20;;;;;;;;;;5072101;28;20485;-76
2022/03/02 00:21:39;;;;;;;38.03;28.05;;;;;;;;;;5063698;28;20040;-76
2022/03/02 00:24:06;;;;;;;37.50;27.92;;;;;;;;;;5022327;28;20060;-76
2022/03/02 00:26:32;;;;;;;41.55;28.48;;;;;;;;;;5043428;28;20052;-76
2022/03/02 00:28:58;;;;;;;37.33;27.85;;;;;;;;;;5070707;28;20072;-77
2022/03/02 00:31:25;;;;;;;40.00;28.85;;;;;;;;;;5041075;28;20080;-76
2022/03/02 00:33:51;;;;;;;40.00;29.88;;;;;;;;;;5046828;28;20124;-75
2022/03/02 00:36:17;;;;;;;40.90;29.95;;;;;;;;;;5052378;28;20455;-76
2022/03/02 00:38:43;;;;;;;42.28;29.13;;;;;;;;;;5038710;28;20490;-76
2022/03/02 00:41:09;;;;;;;40.90;28.58;;;;;;;;;;5058000;28;20040;-76
2022/03/02 00:43:36;;;;;;;40.65;29.35;;;;;;;;;;5071041;28;20105;-77
2022/03/02 00:46:02;;;;;;;41.53;30.50;;;;;;;;;;5051838;28;20130;-76
2022/03/02 00:48:28;;;;;;;39.28;28.45;;;;;;;;;;5071156;28;20185;-76
2022/03/02 00:50:55;;;;;;;38.88;28.77;;;;;;;;;;5065074;28;20052;-75
2022/03/02 00:53:21;;;;;;;41.13;30.75;;;;;;;;;;5075396;28;20057;-77
2022/03/02 00:55:47;;;;;;;40.85;29.15;;;;;;;;;;5064285;28;20118;-77
2022/03/02 00:58:13;;;;;;;40.53;29.48;;;;;;;;;;5071423;28;20052;-76
2022/03/02 01:00:40;;;;;;;42.40;31.90;;;;;;;;;;5059074;28;20036;-76
2022/03/02 01:03:06;;;;;;;41.90;29.60;;;;;;;;;;5071081;28;20051;-76
2022/03/02 01:05:32;;;;;;;41.33;31.05;;;;;;;;;;5055246;28;20145;-75
2022/03/02 01:07:58;;;;;;;40.92;29.17;;;;;;;;;;5052728;28;20041;-78
2022/03/02 01:10:24;;;;;;;41.08;29.05;;;;;;;;;;5055727;28;20040;-76
2022/03/02 01:12:51;;;;;;;42.28;29.73;;;;;;;;;;5045460;28;20454;-77
2022/03/02 01:15:17;;;;;;;42.97;30.55;;;;;;;;;;5070635;28;20044;-76
2022/03/02 01:17:43;;;;;;;40.40;30.60;;;;;;;;;;5073685;28;20053;-76
2022/03/02 01:20:10;;;;;;;42.80;30.05;;;;;;;;;;5060034;28;20040;-77
2022/03/02 01:22:37;;;;;;;43.65;29.33;;;;;;;;;;5051501;28;20044;-76
2022/03/02 01:25:04;;;;;;;46.30;31.58;;;;;;;;;;5065681;28;20083;-76
2022/03/02 01:27:30;;;;;;;40.53;29.35;;;;;;;;;;5054909;28;20482;-76
2022/03/02 01:29:56;;;;;;;45.00;28.45;;;;;;;;;;5049114;28;20051;-77
2022/03/02 01:32:22;;;;;;;46.22;32.10;;;;;;;;;;5053330;28;20064;-77
2022/03/02 01:34:48;;;;;;;44.90;31.67;;;;;;;;;;5069948;28;20370;-76
2022/03/02 01:37:15;;;;;;;40.40;29.25;;;;;;;;;;5039409;28;20044;-75
2022/03/02 01:39:41;;;;;;;45.00;31.48;;;;;;;;;;5070134;28;20056;-76
2022/03/02 01:42:07;;;;;;;42.00;31.02;;;;;;;;;;5075174;28;20072;-76
2022/03/02 01:44:34;;;;;;;42.63;31.20;;;;;;;;;;5045660;28;20056;-75
2022/03/02 01:47:01;;;;;;;42.53;30.65;;;;;;;;;;5070564;28;20426;-77
2022/03/02 01:49:27;;;;;;;42.20;30.80;;;;;;;;;;5061107;28;20036;-75
2022/03/02 01:51:53;;;;;;;45.20;30.52;;;;;;;;;;5071194;28;20052;-76
2022/03/02 01:54:19;;;;;;;41.22;30.48;;;;;;;;;;5056683;28;20041;-76
2022/03/02 01:56:46;;;;;;;41.53;29.45;;;;;;;;;;5074914;28;20545;-76
2022/03/02 01:59:12;;;;;;;42.50;29.00;;;;;;;;;;5061098;28;20433;-76
2022/03/02 02:01:38;;;;;;;44.95;31.52;;;;;;;;;;5035712;28;20121;-76
2022/03/02 02:04:05;;;;;;;43.78;30.23;;;;;;;;;;5066050;28;20071;-77
2022/03/02 02:06:31;;;;;;;44.47;30.65;;;;;;;;;;5040520;28;20475;-76
2022/03/02 02:09:02;;;;;;;44.30;31.58;;;;;;;;;;5073470;28;20044;-76
2022/03/02 02:11:30;;;;;;;43.33;30.67;;;;;;;;;;5055075;28;20047;-76
2022/03/02 02:13:56;;;;;;;41.53;30.88;;;;;;;;;;5051584;28;20294;-75
2022/03/02 02:16:23;;;;;;;44.20;32.22;;;;;;;;;;5073591;28;20045;-77
2022/03/02 02:18:50;;;;;;;42.70;31.08;;;;;;;;;;5055274;28;20123;-75
2022/03/02 02:21:18;;;;;;;43.72;30.75;;;;;;;;;;5074433;28;20045;-75
2022/03/02 02:23:44;;;;;;;43.72;31.90;;;;;;;;;;5072164;28;20064;-76
2022/03/02 02:26:10;;;;;;;43.20;30.33;;;;;;;;;;5039141;28;20055;-76
2022/03/02 02:28:36;;;;;;;45.13;30.52;;;;;;;;;;5072266;28;20508;-76
2022/03/02 02:31:03;;;;;;;45.60;31.98;;;;;;;;;;5067994;28;20051;-76
2022/03/02 02:33:29;;;;;;;44.58;31.52;;;;;;;;;;5061543;28;20063;-76
2022/03/02 02:35:56;;;;;;;42.72;29.10;;;;;;;;;;5058379;28;20036;-76
2022/03/02 02:38:22;;;;;;;43.08;30.98;;;;;;;;;;5039821;28;20044;-77
2022/03/02 02:40:52;;;;;;;45.30;31.58;;;;;;;;;;5053911;28;20412;-77
2022/03/02 02:43:19;;;;;;;48.88;33.25;;;;;;;;;;5059788;28;20377;-76
2022/03/02 02:45:46;;;;;;;48.78;32.00;;;;;;;;;;5074167;28;20045;-77
2022/03/02 02:48:12;;;;;;;44.35;31.05;;;;;;;;;;5054786;28;20362;-75
2022/03/02 02:50:38;;;;;;;45.10;32.28;;;;;;;;;;5055229;28;20036;-76
2022/03/02 02:53:06;;;;;;;43.45;29.88;;;;;;;;;;5033860;28;20052;-76
2022/03/02 02:55:33;;;;;;;45.05;32.10;;;;;;;;;;5054445;28;20056;-76
2022/03/02 02:58:00;;;;;;;50.10;33.97;;;;;;;;;;5050951;28;20139;-78
2022/03/02 03:00:28;;;;;;;47.55;33.38;;;;;;;;;;5054776;28;20095;-76
2022/03/02 03:02:55;;;;;;;49.28;32.30;;;;;;;;;;5037098;28;20040;-76
2022/03/02 03:05:23;;;;;;;44.92;31.73;;;;;;;;;;5066530;28;20486;-76
2022/03/02 03:07:49;;;;;;;47.85;34.08;;;;;;;;;;5053302;28;20048;-76
2022/03/02 03:10:16;;;;;;;49.28;34.13;;;;;;;;;;5052980;28;20072;-76
2022/03/02 03:12:44;;;;;;;45.78;32.40;;;;;;;;;;5066975;28;20036;-76
2022/03/02 03:15:12;;;;;;;46.28;31.70;;;;;;;;;;5071935;28;20390;-76
2022/03/02 03:17:38;;;;;;;46.95;32.30;;;;;;;;;;5071198;28;20124;-76
2022/03/02 03:20:06;;;;;;;50.10;33.38;;;;;;;;;;5038513;28;20044;-77
2022/03/02 03:22:32;;;;;;;50.20;33.60;;;;;;;;;;5038885;28;20120;-76
2022/03/02 03:24:58;;;;;;;51.88;33.53;;;;;;;;;;5052172;28;20132;-77
2022/03/02 03:27:26;;;;;;;44.33;31.67;;;;;;;;;;5053213;28;20095;-76
2022/03/02 03:29:52;;;;;;;45.28;31.35;;;;;;;;;;5070126;28;20501;-77
2022/03/02 03:32:18;;;;;;;50.25;33.55;;;;;;;;;;5072659;28;20087;-77
2022/03/02 03:34:44;;;;;;;45.75;31.98;;;;;;;;;;5046535;28;20051;-76
2022/03/02 03:37:10;;;;;;;46.33;33.25;;;;;;;;;;5055145;28;20049;-76
2022/03/02 03:39:37;;;;;;;46.58;31.95;;;;;;;;;;5063493;28;20055;-76
2022/03/02 03:42:03;;;;;;;46.63;33.28;;;;;;;;;;5071445;28;20046;-76
2022/03/02 03:44:29;;;;;;;50.97;33.88;;;;;;;;;;5039407;28;20059;-76
2022/03/02 03:46:55;;;;;;;48.15;34.08;;;;;;;;;;5052437;28;20061;-76
2022/03/02 03:49:21;;;;;;;47.45;33.90;;;;;;;;;;5035761;28;20397;-76
2022/03/02 03:51:47;;;;;;;48.75;33.00;;;;;;;;;;5016115;28;20044;-76
2022/03/02 03:54:13;;;;;;;48.38;32.97;;;;;;;;;;5067834;28;20037;-76
2022/03/02 03:56:39;;;;;;;48.42;34.13;;;;;;;;;;5046119;28;20394;-77
2022/03/02 03:59:07;;;;;;;52.17;33.55;;;;;;;;;;5068007;28;20063;-76
2022/03/02 04:01:33;;;;;;;43.92;31.48;;;;;;;;;;5071593;28;20182;-76
2022/03/02 04:04:00;;;;;;;47.92;31.83;;;;;;;;;;5034507;28;20056;-77
2022/03/02 04:06:26;;;;;;;52.97;32.83;;;;;;;;;;5066841;28;20036;-76
2022/03/02 04:08:52;;;;;;;49.85;33.10;;;;;;;;;;5051481;28;20037;-76
2022/03/02 04:11:18;;;;;;;51.05;33.63;;;;;;;;;;5067569;28;20486;-77
2022/03/02 04:13:44;;;;;;;50.88;34.67;;;;;;;;;;5056820;28;20106;-77
2022/03/02 04:16:11;;;;;;;47.78;34.00;;;;;;;;;;5071529;28;20181;-74
2022/03/02 04:18:37;;;;;;;46.25;32.90;;;;;;;;;;5071319;28;20040;-77
2022/03/02 04:21:03;;;;;;;46.97;32.78;;;;;;;;;;5052066;28;20105;-77
2022/03/02 04:23:30;;;;;;;47.58;32.15;;;;;;;;;;5040110;28;20488;-76
2022/03/02 04:25:56;;;;;;;46.83;33.15;;;;;;;;;;5075689;28;20045;-77
2022/03/02 04:28:22;;;;;;;48.85;33.75;;;;;;;;;;5055705;28;20497;-75
2022/03/02 04:30:48;;;;;;;48.35;33.92;;;;;;;;;;5067002;28;20040;-77
2022/03/02 04:33:14;;;;;;;46.92;33.28;;;;;;;;;;5078042;28;20040;-76
2022/03/02 04:35:47;;;;;;;50.25;34.00;;;;;;;;;;5072389;28;20041;-76
2022/03/02 04:38:17;;;;;;;52.28;34.83;;;;;;;;;;5059437;28;20045;-76
2022/03/02 04:44:06;;;;;;;;;;;;;;;;;;5079769;28;20041;-77
2022/03/02 04:47:04;;;;;;;47.55;32.53;;;;;;;;;;5079167;28;20375;-76
2022/03/02 04:49:30;;;;;;;47.45;32.25;;;;;;;;;;5073942;28;20036;-75
2022/03/02 04:51:57;;;;;;;47.17;32.42;;;;;;;;;;5066113;28;20400;-77
2022/03/02 04:57:15;;;;;;;46.88;32.45;;;;;;;;;;5026492;28;20068;-75
2022/03/02 04:59:41;;;;;;;49.60;33.08;;;;;;;;;;5062210;28;20048;-76
2022/03/02 05:02:07;;;;;;;52.25;33.20;;;;;;;;;;5062898;28;20076;-75
2022/03/02 05:04:33;;;;;;;48.17;31.90;;;;;;;;;;5046597;28;20053;-76
2022/03/02 05:07:00;;;;;;;45.90;31.55;;;;;;;;;;5056500;28;20040;-77
2022/03/02 05:09:26;;;;;;;44.67;30.23;;;;;;;;;;5064015;28;20063;-78
2022/03/02 05:11:52;;;;;;;46.65;29.98;;;;;;;;;;5067528;28;20417;-76
2022/03/02 05:14:18;;;;;;;47.53;33.30;;;;;;;;;;5069131;28;20397;-75
2022/03/02 05:16:44;;;;;;;48.78;33.17;;;;;;;;;;5051898;28;20128;-76
2022/03/02 05:19:10;;;;;;;49.53;32.45;;;;;;;;;;5055577;28;20043;-77
2022/03/02 05:21:37;;;;;;;46.20;31.80;;;;;;;;;;5066885;28;20041;-77
2022/03/02 05:24:03;;;;;;;45.97;28.50;;;;;;;;;;5076757;28;20044;-76
2022/03/02 05:26:29;;;;;;;44.05;29.58;;;;;;;;;;5060003;28;20051;-77
2022/03/02 05:28:55;;;;;;;47.83;30.30;;;;;;;;;;5076834;28;20045;-79
2022/03/02 05:31:23;;;;;;;47.83;31.50;;;;;;;;;;5051537;28;20087;-78
2022/03/02 05:33:51;;;;;;;48.15;30.83;;;;;;;;;;5067093;28;20044;-75
2022/03/02 05:36:18;;;;;;;45.60;30.42;;;;;;;;;;5025256;28;20053;-75
2022/03/02 05:38:44;;;;;;;44.92;31.50;;;;;;;;;;5072476;28;20084;-76
2022/03/02 05:41:10;;;;;;;47.60;33.17;;;;;;;;;;5057896;28;20116;-77
2022/03/02 05:43:36;;;;;;;47.00;32.75;;;;;;;;;;5070572;28;20505;-76
2022/03/02 05:46:02;;;;;;;43.75;28.95;;;;;;;;;;5050769;28;20135;-76
2022/03/02 05:48:29;;;;;;;48.30;31.35;;;;;;;;;;5055057;28;20033;-75
2022/03/02 05:51:32;;;;;;;48.42;33.47;;;;;;;;;;5041100;28;20043;-79
2022/03/02 05:54:05;;;;;;;47.53;32.67;;;;;;;;;;5054940;28;20498;-77
2022/03/02 05:56:33;;;;;;;47.55;31.75;;;;;;;;;;5037344;28;20051;-75
2022/03/02 05:59:02;;;;;;;51.83;33.70;;;;;;;;;;5036221;28;20083;-76
2022/03/02 06:01:28;;;;;;;48.80;33.40;;;;;;;;;;5020797;28;20124;-78
2022/03/02 06:03:54;;;;;;;46.92;32.72;;;;;;;;;;5057390;28;20049;-76
2022/03/02 06:06:20;;;;;;;51.33;31.95;;;;;;;;;;5054887;28;20529;-78
2022/03/02 06:08:46;;;;;;;48.08;32.40;;;;;;;;;;5057778;28;20122;-77
2022/03/02 06:11:12;;;;;;;45.90;31.70;;;;;;;;;;5058674;28;20546;-76
2022/03/02 06:13:39;;;;;;;51.30;33.30;;;;;;;;;;5062838;28;20048;-77
2022/03/02 06:16:05;;;;;;;50.60;33.83;;;;;;;;;;5049029;28;20377;-77
2022/03/02 06:18:31;;;;;;;52.00;34.60;;;;;;;;;;5060852;28;20071;-77
2022/03/02 06:21:00;;;;;;;50.72;34.85;;;;;;;;;;5035688;28;20142;-79
2022/03/02 06:23:27;;;;;;;48.17;31.42;;;;;;;;;;5045411;28;20044;-76
2022/03/02 06:25:53;;;;;;;51.35;34.28;;;;;;;;;;5053804;28;20511;-76
2022/03/02 06:28:19;;;;;;;45.92;32.35;;;;;;;;;;5051190;28;20045;-76
2022/03/02 06:30:45;;;;;;;50.92;33.17;;;;;;;;;;5045753;28;20044;-75
2022/03/02 06:33:14;;;;;;;47.58;32.65;;;;;;;;;;5052769;28;20424;-79
2022/03/02 06:35:40;;;;;;;49.85;32.75;;;;;;;;;;5054463;28;20048;-77
2022/03/02 06:38:06;;;;;;;54.33;33.55;;;;;;;;;;5074074;28;20452;-75
2022/03/02 06:40:33;;;;;;;49.17;31.65;;;;;;;;;;5061958;28;20049;-76
2022/03/02 06:43:00;;;;;;;49.75;32.95;;;;;;;;;;5045431;28;20124;-79
2022/03/02 06:45:52;;;;;;;50.33;33.72;;;;;;;;;;5026584;28;20094;-77
2022/03/02 06:48:21;;;;;;;49.92;34.03;;;;;;;;;;5068241;28;20048;-78
2022/03/02 06:50:50;;;;;;;48.03;32.17;;;;;;;;;;5072550;28;20041;-76
2022/03/02 06:53:16;;;;;;;49.03;31.60;;;;;;;;;;5071719;28;20040;-77
2022/03/02 06:55:43;;;;;;;50.50;32.25;;;;;;;;;;5038667;28;20037;-77
2022/03/02 06:58:11;;;;;;;56.65;36.17;;;;;;;;;;5050044;28;20041;-75
2022/03/02 07:00:38;;;;;;;51.13;32.53;;;;;;;;;;5019428;28;20094;-76
2022/03/02 07:03:05;;;;;;;50.13;32.22;;;;;;;;;;5058438;28;20093;-76
2022/03/02 07:05:32;;;;;;;50.22;33.33;;;;;;;;;;5046307;28;20044;-77
2022/03/02 07:08:00;;;;;;;46.60;29.05;;;;;;;;;;5068562;28;20044;-78
2022/03/02 07:10:27;;;;;;;51.30;33.55;;;;;;;;;;5056522;28;20044;-75
2022/03/02 07:12:53;;;;;;;51.83;35.28;;;;;;;;;;5053969;28;20043;-77
2022/03/02 07:15:19;;;;;;;51.53;32.35;;;;;;;;;;5058894;28;20036;-76
2022/03/02 07:17:45;;;;;;;50.47;34.15;;;;;;;;;;5035227;28;20481;-79
2022/03/02 07:20:12;;;;;;;49.38;32.47;;;;;;;;;;5035375;28;20044;-76
2022/03/02 07:22:43;;;;;;;47.85;30.55;;;;;;;;;;5038713;28;20038;-77
2022/03/02 07:25:16;;;;;;;48.65;33.75;;;;;;;;;;5053666;28;20061;-77
2022/03/02 07:27:42;;;;;;;47.25;31.88;;;;;;;;;;5072954;28;20385;-77
2022/03/02 07:30:09;;;;;;;53.30;33.53;;;;;;;;;;5043431;28;20043;-76
2022/03/02 07:32:37;;;;;;;49.13;32.88;;;;;;;;;;5052127;28;20127;-79
2022/03/02 07:35:05;;;;;;;49.08;34.95;;;;;;;;;;5053267;28;20045;-78
2022/03/02 07:37:31;;;;;;;51.10;35.50;;;;;;;;;;5053171;28;20040;-76
2022/03/02 07:39:57;;;;;;;47.03;30.38;;;;;;;;;;5052764;28;20501;-76
2022/03/02 07:42:24;;;;;;;44.85;31.75;;;;;;;;;;5035049;28;20367;-78
2022/03/02 07:44:51;;;;;;;46.05;31.60;;;;;;;;;;5052895;28;20131;-78
2022/03/02 07:47:17;;;;;;;44.40;30.67;;;;;;;;;;5053239;28;20359;-78
2022/03/02 07:49:45;;;;;;;44.97;31.88;;;;;;;;;;5053125;28;20041;-78
2022/03/02 07:52:11;;;;;;;42.65;31.15;;;;;;;;;;5035158;28;20045;-78
2022/03/02 07:54:39;;;;;;;41.83;30.38;;;;;;;;;;5052633;28;20037;-78
2022/03/02 07:57:07;;;;;;;46.53;33.90;;;;;;;;;;5035172;28;20049;-76
2022/03/02 07:59:36;;;;;;;43.78;31.27;;;;;;;;;;5051839;28;20045;-78
2022/03/02 08:02:03;;;;;;;44.20;31.15;;;;;;;;;;5052761;28;20045;-79
2022/03/02 08:04:31;;;;;;;40.30;29.92;;;;;;;;;;5035012;28;20041;-78
2022/03/02 08:06:57;;;;;;;39.47;29.98;;;;;;;;;;5052779;28;20382;-76
2022/03/02 08:09:23;;;;;;;38.47;29.05;;;;;;;;;;5052604;28;20041;-78
2022/03/02 08:11:49;;;;;;;41.67;31.25;;;;;;;;;;5052514;28;20424;-77
2022/03/02 08:14:21;;;;;;;39.60;29.95;;;;;;;;;;5034992;28;20098;-77
2022/03/02 08:16:47;;;;;;;41.20;30.25;;;;;;;;;;5018634;28;20390;-77
2022/03/02 08:19:13;;;;;;;40.47;28.08;;;;;;;;;;5052576;28;20047;-80
2022/03/02 08:21:41;;;;;;;42.30;29.83;;;;;;;;;;5052517;28;20041;-79
2022/03/02 08:24:09;;;;;;;38.90;28.48;;;;;;;;;;5052520;28;20049;-76
2022/03/02 08:26:38;;;;;;;36.38;27.35;;;;;;;;;;5018274;28;20103;-77
2022/03/02 08:29:12;;;;;;;41.35;28.67;;;;;;;;;;5052273;28;20394;-76
2022/03/02 08:31:39;;;;;;;37.03;27.73;;;;;;;;;;5052467;28;20037;-78
2022/03/02 08:34:06;;;;;;;37.97;27.88;;;;;;;;;;5052585;28;20044;-77
2022/03/02 08:36:34;;;;;;;35.20;26.80;;;;;;;;;;5018348;28;20514;-78
2022/03/02 08:39:01;;;;;;;35.10;27.05;;;;;;;;;;5034481;28;20041;-79
2022/03/02 08:41:27;;;;;;;37.30;27.02;;;;;;;;;;5052265;28;20053;-77
2022/03/02 08:43:53;;;;;;;53.47;31.33;;;;;;;;;;5034575;28;20315;-79
2022/03/02 08:46:19;;;;;;;37.80;26.60;;;;;;;;;;5052338;28;20482;-78
2022/03/02 08:48:45;;;;;;;50.55;31.23;;;;;;;;;;5034889;28;20382;-79
2022/03/02 08:51:11;;;;;;;49.80;31.15;;;;;;;;;;5034513;28;20103;-76
2022/03/02 08:53:39;;;;;;;48.60;29.80;;;;;;;;;;5052054;28;20073;-78
2022/03/02 08:56:06;;;;;;;35.85;25.52;;;;;;;;;;5052342;28;20045;-78
2022/03/02 08:58:32;;;;;;;35.85;25.63;;;;;;;;;;5052327;28;20045;-76
2022/03/02 09:00:59;;;;;;;41.63;27.83;;;;;;;;;;5052336;28;20501;-79
2022/03/02 09:03:26;;;;;;;38.40;26.60;;;;;;;;;;5052044;28;20491;-77
2022/03/02 09:05:52;;;;;;;35.22;24.77;;;;;;;;;;5052130;28;20041;-76
2022/03/02 09:08:19;;;;;;;34.50;24.67;;;;;;;;;;5033956;28;20135;-77
2022/03/02 09:10:45;;;;;;;36.28;25.58;;;;;;;;;;5034457;28;20441;-77
2022/03/02 09:13:11;;;;;;;38.00;24.70;;;;;;;;;;5021792;28;20053;-78
2022/03/02 09:15:38;;;;;;;32.67;24.85;;;;;;;;;;5055913;28;20044;-78
2022/03/02 09:18:05;;;;;;;33.15;23.08;;;;;;;;;;5055755;28;20428;-79
2022/03/02 09:20:31;;;;;;;32.30;23.25;;;;;;;;;;5037835;28;20048;-77
2022/03/02 09:23:01;;;;;;;34.03;22.73;;;;;;;;;;5055705;28;20135;-76
2022/03/02 09:25:27;;;;;;;33.58;23.52;;;;;;;;;;5054942;28;20521;-79
2022/03/02 09:27:55;;;;;;;32.08;23.15;;;;;;;;;;5054548;28;20442;-76
2022/03/02 09:30:21;;;;;;;32.03;22.15;;;;;;;;;;5054616;28;20465;-78
2022/03/02 09:32:52;;;;;;;32.25;21.15;;;;;;;;;;5055107;28;20045;-76
2022/03/02 09:35:20;;;;;;;37.72;24.63;;;;;;;;;;5021107;28;20467;-77
2022/03/02 09:37:49;;;;;;;36.38;24.77;;;;;;;;;;5055587;28;20037;-78
2022/03/02 09:40:31;;;;;;;35.25;24.67;;;;;;;;;;5037548;28;20080;-78
2022/03/02 09:43:02;;;;;;;31.83;23.63;;;;;;;;;;5037420;28;20037;-76
2022/03/02 09:45:29;;;;;;;35.08;25.05;;;;;;;;;;5055200;28;20086;-74
2022/03/02 09:47:57;;;;;;;33.85;23.98;;;;;;;;;;5037362;28;20055;-79
2022/03/02 09:50:24;;;;;;;33.92;23.65;;;;;;;;;;5055215;28;20049;-75
2022/03/02 09:52:53;;;;;;;30.73;21.38;;;;;;;;;;5055044;28;20106;-77
2022/03/02 09:55:23;;;;;;;31.77;22.77;;;;;;;;;;5037293;28;20040;-78
2022/03/02 09:57:53;;;;;;;31.90;22.60;;;;;;;;;;5055068;28;20486;-76
2022/03/02 10:00:20;;;;;;;32.92;22.77;;;;;;;;;;5054850;28;20037;-77
2022/03/02 10:02:47;;;;;;;30.02;22.50;;;;;;;;;;5037188;28;20052;-77
2022/03/02 10:05:16;;;;;;;29.88;21.52;;;;;;;;;;5054986;28;20074;-78
2022/03/02 10:07:45;;;;;;;31.25;22.52;;;;;;;;;;5037278;28;20119;-78
2022/03/02 10:10:17;;;;;;;34.38;22.73;;;;;;;;;;5037044;28;20084;-76
2022/03/02 10:12:43;;;;;;;30.90;22.60;;;;;;;;;;5054564;28;20056;-77
2022/03/02 10:15:14;;;;;;;34.50;22.92;;;;;;;;;;5036973;28;20066;-77
2022/03/02 10:17:41;;;;;;;33.35;22.00;;;;;;;;;;5054775;28;20045;-77
2022/03/02 10:20:09;;;;;;;31.67;21.70;;;;;;;;;;5036787;28;20386;-78
2022/03/02 10:22:41;;;;;;;31.17;22.13;;;;;;;;;;5035994;28;20073;-77
2022/03/02 10:25:08;;;;;;;31.15;22.75;;;;;;;;;;5054117;28;20429;-79
2022/03/02 10:27:34;;;;;;;28.20;20.55;;;;;;;;;;5036642;28;20052;-77
2022/03/02 10:30:06;;;;;;;29.63;20.92;;;;;;;;;;5036870;28;20045;-75
2022/03/02 10:32:32;;;;;;;;;;;;;;;;;;5037078;28;20386;-78
2022/03/02 10:35:02;;;;;;;29.92;19.92;;;;;;;;;;5036724;28;20393;-79
2022/03/02 10:37:34;;;;;;;28.20;18.10;;;;;;;;;;5020176;28;20124;-75
2022/03/02 10:40:06;;;;;;;28.73;20.70;;;;;;;;;;5053944;28;20044;-77
2022/03/02 10:42:35;;;;;;;28.98;20.80;;;;;;;;;;5036645;28;20041;-79
2022/03/02 10:45:18;;;;;;;30.70;21.02;;;;;;;;;;5053407;28;20082;-81
2022/03/02 10:47:44;;;;;;;28.30;19.52;;;;;;;;;;5019656;28;20045;-77
2022/03/02 10:50:11;;;;;;;26.58;18.27;;;;;;;;;;5036133;28;20106;-78
2022/03/02 10:52:39;;;;;;;27.20;19.70;;;;;;;;;;5036342;28;20045;-77
2022/03/02 10:55:07;;;;;;;30.63;21.05;;;;;;;;;;5036482;28;20132;-78
2022/03/02 10:57:34;;;;;;;29.80;20.98;;;;;;;;;;5054099;28;20048;-77
2022/03/02 11:00:21;;;;;;;27.45;21.35;;;;;;;;;;5035877;28;20040;-78
2022/03/02 11:02:57;;;;;;;27.33;20.13;;;;;;;;;;5054029;28;20041;-77
2022/03/02 11:05:29;;;;;;;28.75;20.20;;;;;;;;;;5040461;28;20045;-77
2022/03/02 11:07:55;;;;;;;31.55;21.20;;;;;;;;;;5059546;28;20044;-79
2022/03/02 11:10:23;;;;;;;27.10;20.17;;;;;;;;;;5059843;28;20137;-78
2022/03/02 11:12:50;;;;;;;27.38;19.88;;;;;;;;;;5056687;28;20056;-78
2022/03/02 11:15:17;;;;;;;26.92;19.15;;;;;;;;;;5053728;28;20040;-77
2022/03/02 11:18:01;;;;;;;28.67;19.60;;;;;;;;;;5053418;28;20049;-79
2022/03/02 11:20:29;;;;;;;29.13;20.38;;;;;;;;;;5035720;28;20063;-78
2022/03/02 11:22:57;;;;;;;28.70;20.38;;;;;;;;;;5053361;28;20045;-79
2022/03/02 11:25:41;;;;;;;28.13;20.15;;;;;;;;;;5032224;28;20461;-77
2022/03/02 11:28:08;;;;;;;28.02;20.05;;;;;;;;;;5033479;28;20050;-78
2022/03/02 11:30:34;;;;;;;27.58;20.65;;;;;;;;;;5032642;28;20056;-77
2022/03/02 11:33:06;;;;;;;28.13;21.27;;;;;;;;;;5032325;28;20052;-78
2022/03/02 11:35:36;;;;;;;32.63;20.90;;;;;;;;;;5033197;28;20093;-76
2022/03/02 11:38:04;;;;;;;31.80;20.90;;;;;;;;;;5032264;28;20056;-76
2022/03/02 11:40:44;;;;;;;30.10;21.38;;;;;;;;;;5033024;28;20045;-77
2022/03/02 11:43:21;;;;;;;30.13;21.60;;;;;;;;;;5033275;28;20048;-76
2022/03/02 11:45:47;;;;;;;30.70;21.50;;;;;;;;;;5033155;28;20372;-76
2022/03/02 11:48:15;;;;;;;28.40;19.63;;;;;;;;;;5031867;28;20037;-80
2022/03/02 11:51:00;;;;;;;30.15;19.77;;;;;;;;;;5031841;28;20566;-77
2022/03/02 11:53:36;;;;;;;29.10;20.73;;;;;;;;;;5030832;28;20506;-77
2022/03/02 11:56:03;;;;;;;34.10;23.33;;;;;;;;;;5032464;28;20547;-78
2022/03/02 11:58:49;;;;;;;27.00;20.42;;;;;;;;;;5032845;28;20042;-78
2022/03/02 12:01:15;;;;;;;27.13;19.98;;;;;;;;;;5031601;28;20386;-78
2022/03/02 12:03:54;;;;;;;25.63;19.80;;;;;;;;;;5031762;28;20050;-77
2022/03/02 12:06:20;;;;;;;26.02;19.48;;;;;;;;;;5032579;28;20041;-77
2022/03/02 12:08:51;;;;;;;27.17;20.02;;;;;;;;;;5031761;28;20068;-78
2022/03/02 12:11:22;;;;;;;29.42;21.13;;;;;;;;;;5031577;28;20363;-76
2022/03/02 12:13:48;;;;;;;;;;;;;;;;;;5031803;28;20041;-77
2022/03/02 12:16:14;;;;;;;27.20;18.88;;;;;;;;;;5032719;28;19999;-78
2022/03/02 12:18:40;;;;;;;27.73;19.23;;;;;;;;;;5032693;28;20120;-79
2022/03/02 12:21:17;;;;;;;27.77;19.40;;;;;;;;;;5015147;28;20123;-78
2022/03/02 12:23:52;;;;;;;27.40;19.92;;;;;;;;;;5032658;28;20345;-77
2022/03/02 12:26:18;;;;;;;27.83;19.50;;;;;;;;;;5045707;28;20509;-78
2022/03/02 12:28:55;;;;;;;27.60;18.95;;;;;;;;;;5052539;28;20071;-76
2022/03/02 12:31:28;;;;;;;26.15;20.00;;;;;;;;;;5034433;28;20055;-77
2022/03/02 12:34:11;;;;;;;23.58;19.10;;;;;;;;;;5034820;28;20051;-76
2022/03/02 12:36:37;;;;;;;26.15;19.50;;;;;;;;;;5034679;28;20239;-77
2022/03/02 12:39:03;;;;;;;25.17;18.75;;;;;;;;;;5018253;28;20049;-77
2022/03/02 12:41:30;;;;;;;27.08;19.27;;;;;;;;;;5034591;28;20049;-78
2022/03/02 12:43:57;;;;;;;26.55;19.40;;;;;;;;;;5034497;28;20394;-77
2022/03/02 12:46:23;;;;;;;25.05;18.30;;;;;;;;;;5053381;28;20391;-77
2022/03/02 12:48:51;;;;;;;24.83;18.27;;;;;;;;;;5056160;28;20049;-80
2022/03/02 12:51:17;;;;;;;27.15;18.67;;;;;;;;;;5056063;28;20133;-77
2022/03/02 12:53:44;;;;;;;26.83;19.40;;;;;;;;;;5021809;28;20466;-78
2022/03/02 12:56:10;;;;;;;26.33;19.00;;;;;;;;;;5038619;28;20041;-79
2022/03/02 12:58:38;;;;;;;25.25;18.80;;;;;;;;;;5056158;28;20045;-75
2022/03/02 13:01:04;;;;;;;25.98;19.08;;;;;;;;;;5056078;28;20056;-76
2022/03/02 13:03:31;;;;;;;27.05;18.85;;;;;;;;;;5038455;28;20037;-79
2022/03/02 13:06:01;;;;;;;26.35;17.85;;;;;;;;;;5055775;28;20041;-76
2022/03/02 13:08:37;;;;;;;23.05;16.85;;;;;;;;;;5038531;28;20095;-77
2022/03/02 13:11:04;;;;;;;27.52;18.92;;;;;;;;;;5055623;28;20520;-76
2022/03/02 13:13:40;;;;;;;27.92;19.55;;;;;;;;;;5055795;28;20051;-76
2022/03/02 13:16:24;;;;;;;24.75;18.30;;;;;;;;;;5038077;28;20098;-74
2022/03/02 13:18:52;;;;;;;26.25;19.30;;;;;;;;;;5055635;28;20445;-74
2022/03/02 13:21:28;;;;;;;24.70;18.08;;;;;;;;;;5055806;28;20045;-73
2022/03/02 13:24:04;;;;;;;25.77;18.85;;;;;;;;;;5037568;28;20479;-73
2022/03/02 13:26:32;;;;;;;23.50;17.27;;;;;;;;;;5037455;28;20045;-75
2022/03/02 13:29:00;;;;;;;26.88;18.80;;;;;;;;;;5055319;28;20072;-75
2022/03/02 13:31:26;;;;;;;25.85;18.30;;;;;;;;;;5037920;28;20083;-74
2022/03/02 13:33:56;;;;;;;26.13;18.70;;;;;;;;;;5037805;28;20497;-74
2022/03/02 13:36:35;;;;;;;27.15;18.17;;;;;;;;;;5037727;28;20663;-74
2022/03/02 13:39:34;;;;;;;25.63;17.42;;;;;;;;;;5037345;28;20382;-74
2022/03/02 13:42:01;;;;;;;24.38;17.73;;;;;;;;;;5050146;28;20142;-73
2022/03/02 13:44:29;;;;;;;26.00;17.88;;;;;;;;;;5037452;28;20076;-74
2022/03/02 13:47:07;;;;;;;23.67;17.52;;;;;;;;;;5020772;28;20466;-75
2022/03/02 13:49:58;;;;;;;22.85;17.75;;;;;;;;;;5037255;28;20088;-75
2022/03/02 13:52:27;;;;;;;21.88;16.13;;;;;;;;;;5027481;28;20048;-76
2022/03/02 13:54:53;;;;;;;24.05;17.67;;;;;;;;;;5037197;28;20084;-75
2022/03/02 13:57:22;;;;;;;24.83;17.55;;;;;;;;;;5036458;28;20036;-76
2022/03/02 13:59:49;;;;;;;24.42;18.00;;;;;;;;;;5054487;28;20061;-78
2022/03/02 14:02:15;;;;;;;23.25;18.45;;;;;;;;;;5037132;28;20386;-78
2022/03/02 14:04:45;;;;;;;22.75;16.70;;;;;;;;;;5037440;28;20039;-77
2022/03/02 14:07:11;;;;;;;22.55;16.88;;;;;;;;;;5054844;28;20128;-75
2022/03/02 14:09:38;;;;;;;22.40;17.08;;;;;;;;;;5037327;28;20080;-79
2022/03/02 14:12:05;;;;;;;23.95;17.13;;;;;;;;;;5054671;28;20072;-77
2022/03/02 14:14:32;;;;;;;26.48;17.13;;;;;;;;;;5020652;28;20055;-77
2022/03/02 14:17:05;;;;;;;22.75;16.75;;;;;;;;;;5054418;28;20041;-76
2022/03/02 14:19:41;;;;;;;23.58;17.15;;;;;;;;;;5054402;28;20041;-76
2022/03/02 14:22:15;;;;;;;23.17;16.67;;;;;;;;;;5054657;28;20041;-76
2022/03/02 14:24:43;;;;;;;22.52;17.15;;;;;;;;;;5054378;28;20045;-76
2022/03/02 14:27:11;;;;;;;23.63;17.42;;;;;;;;;;5054171;28;20049;-79
2022/03/02 14:29:38;;;;;;;24.73;18.60;;;;;;;;;;5054487;28;20102;-76
2022/03/02 14:32:10;;;;;;;23.95;17.30;;;;;;;;;;5036607;28;20045;-75